createdAt,value
2018-03-04T00:00:40.486Z,0
2018-03-04T00:01:40.240Z,0
2018-03-04T00:02:39.945Z,0
2018-03-04T00:03:39.925Z,0
2018-03-04T00:04:40.169Z,0
2018-03-04T00:05:39.693Z,0
2018-03-04T00:06:40.230Z,0
2018-03-04T00:07:40.229Z,0
2018-03-04T00:08:40.231Z,0
2018-03-04T00:09:39.725Z,0
2018-03-04T00:10:40.010Z,0
2018-03-04T00:11:40.212Z,0
2018-03-04T00:12:40.033Z,0
2018-03-04T00:13:39.848Z,0
2018-03-04T00:14:39.581Z,0
2018-03-04T00:15:39.834Z,0
2018-03-04T00:16:39.859Z,0
2018-03-04T00:17:39.565Z,0
2018-03-04T00:18:40.092Z,0
2018-03-04T00:19:39.861Z,0
2018-03-04T00:20:39.534Z,0
2018-03-04T00:21:39.521Z,0
2018-03-04T00:22:39.839Z,0
2018-03-04T00:23:39.519Z,0
2018-03-04T00:24:40.129Z,0
2018-03-04T00:25:40.014Z,0
2018-03-04T00:26:39.777Z,0
2018-03-04T00:27:39.997Z,0
2018-03-04T00:28:39.777Z,0
2018-03-04T00:29:39.811Z,0
2018-03-04T00:30:39.827Z,0
2018-03-04T00:31:39.779Z,0
2018-03-04T00:32:39.685Z,0
2018-03-04T00:33:39.163Z,0
2018-03-04T00:34:39.701Z,0
2018-03-04T00:35:39.417Z,0
2018-03-04T00:36:39.930Z,0
2018-03-04T00:37:39.900Z,0
2018-03-04T00:38:39.645Z,0
2018-03-04T00:39:39.388Z,0
2018-03-04T00:40:39.613Z,0
2018-03-04T00:41:39.352Z,0
2018-03-04T00:42:39.607Z,0
2018-03-04T00:43:39.084Z,0
2018-03-04T00:44:39.587Z,0
2018-03-04T00:45:39.829Z,0
2018-03-04T00:46:39.840Z,0
2018-03-04T00:47:39.072Z,0
2018-03-04T00:48:39.546Z,0
2018-03-04T00:49:39.793Z,0
2018-03-04T00:50:39.532Z,0
2018-03-04T00:51:39.772Z,0
2018-03-04T00:52:39.263Z,0
2018-03-04T00:53:39.771Z,0
2018-03-04T00:54:39.513Z,0
2018-03-04T00:55:39.738Z,0
2018-03-04T00:56:39.478Z,0
2018-03-04T00:57:39.477Z,0
2018-03-04T00:58:39.467Z,0
2018-03-04T00:59:39.471Z,0
2018-03-04T01:00:39.721Z,0
2018-03-04T01:01:39.200Z,0
2018-03-04T01:02:39.694Z,0
2018-03-04T01:03:39.182Z,0
2018-03-04T01:04:39.675Z,0
2018-03-04T01:05:39.660Z,0
2018-03-04T01:06:39.405Z,0
2018-03-04T01:07:39.651Z,0
2018-03-04T01:08:39.399Z,0
2018-03-04T01:09:39.117Z,0
2018-03-04T01:10:39.391Z,0
2018-03-04T01:11:39.365Z,0
2018-03-04T01:12:39.343Z,0
2018-03-04T01:13:39.354Z,0
2018-03-04T01:14:39.600Z,0
2018-03-04T01:15:39.323Z,0
2018-03-04T01:16:39.333Z,0
2018-03-04T01:17:39.577Z,0
2018-03-04T01:18:39.043Z,0
2018-03-04T01:19:39.571Z,0
2018-03-04T01:20:39.280Z,0
2018-03-04T01:21:39.021Z,0
2018-03-04T01:22:39.267Z,0
2018-03-04T01:23:39.527Z,0
2018-03-04T01:24:39.244Z,0
2018-03-04T01:25:39.007Z,0
2018-03-04T01:26:39.249Z,0
2018-03-04T01:27:39.227Z,0
2018-03-04T01:28:40.807Z,0
2018-03-04T01:29:39.296Z,0
2018-03-04T01:30:39.478Z,0
2018-03-04T01:31:39.459Z,0
2018-03-04T01:32:39.449Z,0
2018-03-04T01:33:39.190Z,0
2018-03-04T01:34:39.168Z,0
2018-03-04T01:35:39.424Z,0
2018-03-04T01:36:39.157Z,0
2018-03-04T01:37:39.151Z,0
2018-03-04T01:38:39.206Z,0
2018-03-04T01:39:39.134Z,0
2018-03-04T01:40:39.119Z,0
2018-03-04T01:41:39.114Z,0
2018-03-04T01:42:39.097Z,0
2018-03-04T01:43:39.090Z,0
2018-03-04T01:44:39.339Z,0
2018-03-04T01:45:38.817Z,0
2018-03-04T01:46:39.321Z,0
2018-03-04T01:47:39.328Z,0
2018-03-04T01:48:39.049Z,0
2018-03-04T01:49:39.049Z,0
2018-03-04T01:50:39.283Z,0
2018-03-04T01:51:39.317Z,0
2018-03-04T01:52:39.278Z,0
2018-03-04T01:53:40.462Z,0
2018-03-04T01:54:39.248Z,0
2018-03-04T01:55:38.994Z,0
2018-03-04T01:56:38.993Z,0
2018-03-04T01:57:39.227Z,0
2018-03-04T01:58:38.960Z,0
2018-03-04T01:59:38.954Z,0
2018-03-04T02:00:38.456Z,0
2018-03-04T02:01:38.932Z,0
2018-03-04T02:02:39.180Z,0
2018-03-04T02:03:38.691Z,0
2018-03-04T02:04:39.166Z,0
2018-03-04T02:05:39.175Z,0
2018-03-04T02:06:38.908Z,0
2018-03-04T02:07:38.881Z,0
2018-03-04T02:08:39.132Z,0
2018-03-04T02:09:39.126Z,0
2018-03-04T02:10:38.619Z,0
2018-03-04T02:11:39.099Z,0
2018-03-04T02:12:39.096Z,0
2018-03-04T02:13:39.091Z,0
2018-03-04T02:14:39.072Z,0
2018-03-04T02:15:38.810Z,0
2018-03-04T02:16:38.814Z,0
2018-03-04T02:17:38.545Z,0
2018-03-04T02:18:38.788Z,0
2018-03-04T02:19:38.779Z,0
2018-03-04T02:20:39.022Z,0
2018-03-04T02:21:39.017Z,0
2018-03-04T02:22:38.998Z,0
2018-03-04T02:23:43.200Z,0
2018-03-04T02:24:39.068Z,0
2018-03-04T02:25:38.744Z,0
2018-03-04T02:26:38.957Z,0
2018-03-04T02:27:38.954Z,0
2018-03-04T02:28:38.689Z,0
2018-03-04T02:29:38.927Z,0
2018-03-04T02:30:38.683Z,0
2018-03-04T02:31:38.934Z,0
2018-03-04T02:32:38.934Z,0
2018-03-04T02:33:38.903Z,0
2018-03-04T02:34:38.915Z,0
2018-03-04T02:35:38.899Z,0
2018-03-04T02:36:39.012Z,0
2018-03-04T02:37:38.861Z,0
2018-03-04T02:38:38.339Z,0
2018-03-04T02:39:38.843Z,0
2018-03-04T02:40:38.581Z,0
2018-03-04T02:41:38.078Z,0
2018-03-04T02:42:38.572Z,0
2018-03-04T02:43:38.827Z,0
2018-03-04T02:44:38.534Z,0
2018-03-04T02:45:38.267Z,0
2018-03-04T02:46:38.520Z,0
2018-03-04T02:47:38.783Z,0
2018-03-04T02:48:38.520Z,0
2018-03-04T02:49:38.748Z,0
2018-03-04T02:50:38.733Z,0
2018-03-04T02:51:38.473Z,0
2018-03-04T02:52:38.721Z,0
2018-03-04T02:53:37.938Z,0
2018-03-04T02:54:38.902Z,0
2018-03-04T02:55:38.428Z,0
2018-03-04T02:56:38.671Z,0
2018-03-04T02:57:38.665Z,0
2018-03-04T02:58:38.145Z,0
2018-03-04T02:59:38.640Z,0
2018-03-04T03:00:38.650Z,0
2018-03-04T03:01:38.633Z,0
2018-03-04T03:02:38.614Z,0
2018-03-04T03:03:38.601Z,0
2018-03-04T03:04:38.604Z,0
2018-03-04T03:05:38.352Z,0
2018-03-04T03:06:38.067Z,0
2018-03-04T03:07:38.565Z,0
2018-03-04T03:08:38.567Z,0
2018-03-04T03:09:38.977Z,0
2018-03-04T03:10:38.282Z,0
2018-03-04T03:11:38.533Z,0
2018-03-04T03:12:38.531Z,0
2018-03-04T03:13:38.268Z,0
2018-03-04T03:14:38.248Z,0
2018-03-04T03:15:38.500Z,0
2018-03-04T03:16:38.483Z,0
2018-03-04T03:17:38.222Z,0
2018-03-04T03:18:38.202Z,0
2018-03-04T03:19:38.464Z,0
2018-03-04T03:20:38.458Z,0
2018-03-04T03:21:38.427Z,0
2018-03-04T03:22:38.420Z,0
2018-03-04T03:23:38.162Z,0
2018-03-04T03:24:39.477Z,0
2018-03-04T03:25:38.137Z,0
2018-03-04T03:26:38.400Z,0
2018-03-04T03:27:38.379Z,0
2018-03-04T03:28:38.368Z,0
2018-03-04T03:29:38.358Z,0
2018-03-04T03:30:38.109Z,0
2018-03-04T03:31:38.413Z,0
2018-03-04T03:32:38.081Z,0
2018-03-04T03:33:38.071Z,0
2018-03-04T03:34:38.049Z,0
2018-03-04T03:35:38.045Z,0
2018-03-04T03:36:38.045Z,0
2018-03-04T03:37:38.280Z,0
2018-03-04T03:38:38.022Z,0
2018-03-04T03:39:38.307Z,0
2018-03-04T03:40:37.761Z,0
2018-03-04T03:41:38.247Z,0
2018-03-04T03:42:38.226Z,0
2018-03-04T03:43:37.968Z,0
2018-03-04T03:44:37.970Z,0
2018-03-04T03:45:37.967Z,0
2018-03-04T03:46:37.948Z,0
2018-03-04T03:47:37.935Z,0
2018-03-04T03:48:37.940Z,0
2018-03-04T03:49:37.907Z,0
2018-03-04T03:50:38.157Z,0
2018-03-04T03:51:38.158Z,0
2018-03-04T03:52:38.135Z,0
2018-03-04T03:53:37.618Z,0
2018-03-04T03:54:38.660Z,0
2018-03-04T03:55:37.862Z,0
2018-03-04T03:56:37.592Z,0
2018-03-04T03:57:38.094Z,0
2018-03-04T03:58:37.319Z,0
2018-03-04T03:59:37.828Z,0
2018-03-04T04:00:37.558Z,0
2018-03-04T04:01:38.055Z,0
2018-03-04T04:02:37.797Z,0
2018-03-04T04:03:38.029Z,0
2018-03-04T04:04:38.014Z,0
2018-03-04T04:05:38.024Z,0
2018-03-04T04:06:38.005Z,0
2018-03-04T04:07:37.988Z,0
2018-03-04T04:08:37.979Z,0
2018-03-04T04:09:37.714Z,0
2018-03-04T04:10:37.969Z,0
2018-03-04T04:11:37.453Z,0
2018-03-04T04:12:37.944Z,0
2018-03-04T04:13:37.945Z,0
2018-03-04T04:14:37.434Z,0
2018-03-04T04:15:37.916Z,0
2018-03-04T04:16:37.407Z,0
2018-03-04T04:17:37.638Z,0
2018-03-04T04:18:37.905Z,0
2018-03-04T04:19:37.878Z,0
2018-03-04T04:20:37.116Z,0
2018-03-04T04:21:37.351Z,0
2018-03-04T04:22:37.600Z,0
2018-03-04T04:23:37.328Z,0
2018-03-04T04:24:37.576Z,0
2018-03-04T04:25:37.821Z,0
2018-03-04T04:26:37.559Z,0
2018-03-04T04:27:37.043Z,0
2018-03-04T04:28:37.553Z,0
2018-03-04T04:29:37.519Z,0
2018-03-04T04:30:37.317Z,0
2018-03-04T04:31:37.258Z,0
2018-03-04T04:32:37.747Z,0
2018-03-04T04:33:37.000Z,0
2018-03-04T04:34:37.472Z,0
2018-03-04T04:35:37.728Z,0
2018-03-04T04:36:37.720Z,0
2018-03-04T04:37:37.434Z,0
2018-03-04T04:38:37.430Z,0
2018-03-04T04:39:37.163Z,0
2018-03-04T04:40:39.316Z,0
2018-03-04T04:41:37.392Z,0
2018-03-04T04:42:37.656Z,0
2018-03-04T04:43:37.412Z,0
2018-03-04T04:44:37.625Z,0
2018-03-04T04:45:37.353Z,0
2018-03-04T04:46:37.096Z,0
2018-03-04T04:47:37.336Z,0
2018-03-04T04:48:37.590Z,0
2018-03-04T04:49:37.067Z,0
2018-03-04T04:50:37.053Z,0
2018-03-04T04:51:37.335Z,0
2018-03-04T04:52:37.282Z,0
2018-03-04T04:53:37.294Z,0
2018-03-04T04:54:37.516Z,0
2018-03-04T04:55:38.430Z,0
2018-03-04T04:56:37.260Z,0
2018-03-04T04:57:37.270Z,0
2018-03-04T04:58:37.231Z,0
2018-03-04T04:59:36.967Z,0
2018-03-04T05:00:37.221Z,0
2018-03-04T05:01:37.210Z,0
2018-03-04T05:02:37.177Z,0
2018-03-04T05:03:37.434Z,0
2018-03-04T05:04:37.415Z,0
2018-03-04T05:05:36.905Z,0
2018-03-04T05:06:37.156Z,0
2018-03-04T05:07:37.129Z,0
2018-03-04T05:08:37.131Z,0
2018-03-04T05:09:37.367Z,0
2018-03-04T05:10:37.726Z,0
2018-03-04T05:11:37.081Z,0
2018-03-04T05:12:37.082Z,0
2018-03-04T05:13:37.067Z,0
2018-03-04T05:14:37.318Z,0
2018-03-04T05:15:37.329Z,0
2018-03-04T05:16:37.041Z,0
2018-03-04T05:17:37.291Z,0
2018-03-04T05:18:37.017Z,0
2018-03-04T05:19:37.264Z,0
2018-03-04T05:20:37.258Z,0
2018-03-04T05:21:37.235Z,0
2018-03-04T05:22:36.967Z,0
2018-03-04T05:23:37.216Z,0
2018-03-04T05:24:37.213Z,0
2018-03-04T05:25:36.959Z,0
2018-03-04T05:26:37.373Z,0
2018-03-04T05:27:37.178Z,0
2018-03-04T05:28:37.168Z,4
2018-03-04T05:29:37.155Z,4
2018-03-04T05:30:37.136Z,0
2018-03-04T05:31:36.932Z,4
2018-03-04T05:32:36.612Z,4
2018-03-04T05:33:36.858Z,4
2018-03-04T05:34:37.093Z,4
2018-03-04T05:35:37.087Z,4
2018-03-04T05:36:36.569Z,4
2018-03-04T05:37:36.823Z,8
2018-03-04T05:38:36.823Z,12
2018-03-04T05:39:36.538Z,12
2018-03-04T05:40:36.524Z,12
2018-03-04T05:41:37.077Z,16
2018-03-04T05:42:36.763Z,20
2018-03-04T05:43:36.489Z,20
2018-03-04T05:44:36.737Z,24
2018-03-04T05:45:36.981Z,28
2018-03-04T05:46:36.971Z,36
2018-03-04T05:47:36.704Z,40
2018-03-04T05:48:36.693Z,52
2018-03-04T05:49:36.679Z,56
2018-03-04T05:50:36.676Z,64
2018-03-04T05:51:36.920Z,72
2018-03-04T05:52:36.915Z,84
2018-03-04T05:53:36.651Z,100
2018-03-04T05:54:36.630Z,108
2018-03-04T05:55:36.624Z,124
2018-03-04T05:56:36.418Z,144
2018-03-04T05:57:36.361Z,160
2018-03-04T05:58:36.613Z,180
2018-03-04T05:59:36.835Z,200
2018-03-04T06:00:36.570Z,224
2018-03-04T06:01:36.562Z,244
2018-03-04T06:02:36.550Z,272
2018-03-04T06:03:36.540Z,296
2018-03-04T06:04:36.784Z,328
2018-03-04T06:05:36.778Z,356
2018-03-04T06:06:36.503Z,388
2018-03-04T06:07:36.745Z,420
2018-03-04T06:08:36.481Z,456
2018-03-04T06:09:36.725Z,488
2018-03-04T06:10:36.725Z,528
2018-03-04T06:11:38.610Z,564
2018-03-04T06:12:36.699Z,600
2018-03-04T06:13:36.427Z,640
2018-03-04T06:14:36.672Z,696
2018-03-04T06:15:36.406Z,740
2018-03-04T06:16:36.154Z,768
2018-03-04T06:17:36.633Z,812
2018-03-04T06:18:36.383Z,856
2018-03-04T06:19:36.363Z,900
2018-03-04T06:20:36.620Z,948
2018-03-04T06:21:36.340Z,1000
2018-03-04T06:22:36.327Z,1044
2018-03-04T06:23:36.320Z,1092
2018-03-04T06:24:36.315Z,1140
2018-03-04T06:25:36.572Z,1188
2018-03-04T06:26:37.799Z,1236
2018-03-04T06:27:36.285Z,1280
2018-03-04T06:28:36.269Z,1332
2018-03-04T06:29:36.270Z,1376
2018-03-04T06:30:36.499Z,1424
2018-03-04T06:31:36.237Z,1476
2018-03-04T06:32:36.226Z,1524
2018-03-04T06:33:36.234Z,1568
2018-03-04T06:34:36.224Z,1616
2018-03-04T06:35:35.942Z,1660
2018-03-04T06:36:36.441Z,1708
2018-03-04T06:37:36.433Z,1756
2018-03-04T06:38:36.175Z,1804
2018-03-04T06:39:35.924Z,1848
2018-03-04T06:40:35.895Z,1896
2018-03-04T06:41:36.133Z,1936
2018-03-04T06:42:36.122Z,1976
2018-03-04T06:43:35.863Z,2016
2018-03-04T06:44:36.367Z,2060
2018-03-04T06:45:36.109Z,2104
2018-03-04T06:46:36.334Z,2144
2018-03-04T06:47:36.330Z,2244
2018-03-04T06:48:36.067Z,2228
2018-03-04T06:49:36.307Z,2280
2018-03-04T06:50:36.049Z,2324
2018-03-04T06:51:36.031Z,2368
2018-03-04T06:52:36.274Z,2408
2018-03-04T06:53:36.017Z,2444
2018-03-04T06:54:35.751Z,2484
2018-03-04T06:55:36.007Z,2520
2018-03-04T06:56:37.593Z,2568
2018-03-04T06:57:36.252Z,2604
2018-03-04T06:58:36.220Z,2644
2018-03-04T06:59:36.215Z,2676
2018-03-04T07:00:36.214Z,2712
2018-03-04T07:01:35.700Z,2748
2018-03-04T07:02:35.682Z,2796
2018-03-04T07:03:36.178Z,2820
2018-03-04T07:04:35.924Z,2860
2018-03-04T07:05:35.908Z,2896
2018-03-04T07:06:35.631Z,2936
2018-03-04T07:07:36.136Z,2968
2018-03-04T07:08:35.863Z,3004
2018-03-04T07:09:36.109Z,3052
2018-03-04T07:10:36.146Z,3080
2018-03-04T07:11:35.831Z,3120
2018-03-04T07:12:35.830Z,3152
2018-03-04T07:13:35.829Z,3188
2018-03-04T07:14:36.058Z,3236
2018-03-04T07:15:36.046Z,3264
2018-03-04T07:16:35.784Z,3304
2018-03-04T07:17:36.042Z,3332
2018-03-04T07:18:36.033Z,3376
2018-03-04T07:19:35.756Z,3420
2018-03-04T07:20:36.008Z,3472
2018-03-04T07:21:35.734Z,3512
2018-03-04T07:22:35.730Z,3564
2018-03-04T07:23:35.575Z,3564
2018-03-04T07:24:35.467Z,3656
2018-03-04T07:25:35.981Z,3608
2018-03-04T07:26:35.949Z,3800
2018-03-04T07:27:36.783Z,3956
2018-03-04T07:28:35.932Z,3944
2018-03-04T07:29:35.410Z,3996
2018-03-04T07:30:35.915Z,4068
2018-03-04T07:31:35.659Z,4196
2018-03-04T07:32:35.890Z,4420
2018-03-04T07:33:35.381Z,4684
2018-03-04T07:34:35.365Z,4928
2018-03-04T07:35:35.669Z,5144
2018-03-04T07:36:35.610Z,5432
2018-03-04T07:37:35.599Z,5772
2018-03-04T07:38:35.861Z,6032
2018-03-04T07:39:35.332Z,6240
2018-03-04T07:40:35.583Z,6360
2018-03-04T07:41:35.838Z,6392
2018-03-04T07:42:35.587Z,6452
2018-03-04T07:43:35.820Z,6484
2018-03-04T07:44:35.554Z,6500
2018-03-04T07:45:35.050Z,6540
2018-03-04T07:46:35.563Z,6572
2018-03-04T07:47:35.546Z,6568
2018-03-04T07:48:35.297Z,6576
2018-03-04T07:49:35.286Z,6632
2018-03-04T07:50:35.781Z,6628
2018-03-04T07:51:35.544Z,6652
2018-03-04T07:52:35.723Z,6704
2018-03-04T07:53:35.518Z,6744
2018-03-04T07:54:35.788Z,6792
2018-03-04T07:55:35.550Z,6832
2018-03-04T07:56:35.324Z,6844
2018-03-04T07:57:36.094Z,6908
2018-03-04T07:58:35.549Z,6916
2018-03-04T07:59:35.914Z,6988
2018-03-04T08:00:35.267Z,7024
2018-03-04T08:01:35.554Z,7040
2018-03-04T08:02:35.520Z,7072
2018-03-04T08:03:35.788Z,7060
2018-03-04T08:04:35.805Z,7096
2018-03-04T08:05:35.274Z,7060
2018-03-04T08:06:35.853Z,7024
2018-03-04T08:07:35.537Z,6992
2018-03-04T08:08:35.534Z,6972
2018-03-04T08:09:35.042Z,6956
2018-03-04T08:10:35.279Z,6932
2018-03-04T08:11:35.915Z,6956
2018-03-04T08:12:37.586Z,6944
2018-03-04T08:13:35.276Z,6936
2018-03-04T08:14:35.532Z,6948
2018-03-04T08:15:35.281Z,6948
2018-03-04T08:16:35.534Z,6916
2018-03-04T08:17:35.281Z,6912
2018-03-04T08:18:35.648Z,6920
2018-03-04T08:19:35.563Z,6928
2018-03-04T08:20:35.793Z,6908
2018-03-04T08:21:35.825Z,6932
2018-03-04T08:22:35.813Z,6956
2018-03-04T08:23:35.564Z,6988
2018-03-04T08:24:35.300Z,6976
2018-03-04T08:25:35.822Z,6956
2018-03-04T08:26:35.566Z,6952
2018-03-04T08:27:37.400Z,6940
2018-03-04T08:28:35.696Z,6956
2018-03-04T08:29:35.804Z,6964
2018-03-04T08:30:35.561Z,6912
2018-03-04T08:31:35.831Z,6872
2018-03-04T08:32:35.803Z,7048
2018-03-04T08:33:35.291Z,6920
2018-03-04T08:34:35.958Z,6856
2018-03-04T08:35:35.536Z,6572
2018-03-04T08:36:35.798Z,4976
2018-03-04T08:37:35.793Z,4880
2018-03-04T08:38:35.793Z,4960
2018-03-04T08:39:35.610Z,5692
2018-03-04T08:40:35.836Z,5328
2018-03-04T08:41:35.315Z,5464
2018-03-04T08:43:07.630Z,5512
2018-03-04T08:43:35.784Z,5648
2018-03-04T08:44:35.522Z,6012
2018-03-04T08:45:35.656Z,6356
2018-03-04T08:46:35.772Z,6764
2018-03-04T08:47:35.767Z,6708
2018-03-04T08:48:35.766Z,6648
2018-03-04T08:49:35.245Z,7188
2018-03-04T08:50:35.498Z,7260
2018-03-04T08:51:35.531Z,7336
2018-03-04T08:52:35.747Z,7348
2018-03-04T08:53:35.751Z,7336
2018-03-04T08:54:35.490Z,7372
2018-03-04T08:55:35.748Z,7400
2018-03-04T08:56:35.744Z,7392
2018-03-04T08:57:35.213Z,7400
2018-03-04T08:58:36.268Z,7424
2018-03-04T08:59:35.715Z,7488
2018-03-04T09:00:35.452Z,7504
2018-03-04T09:01:35.451Z,7488
2018-03-04T09:02:35.485Z,7476
2018-03-04T09:03:35.763Z,7488
2018-03-04T09:04:35.191Z,7484
2018-03-04T09:05:35.437Z,7340
2018-03-04T09:06:35.195Z,7384
2018-03-04T09:07:35.417Z,7456
2018-03-04T09:08:34.928Z,7464
2018-03-04T09:09:35.462Z,7432
2018-03-04T09:10:35.485Z,7412
2018-03-04T09:11:35.242Z,7408
2018-03-04T09:12:35.402Z,7416
2018-03-04T09:13:37.896Z,7408
2018-03-04T09:14:35.191Z,7400
2018-03-04T09:15:35.383Z,7396
2018-03-04T09:16:35.401Z,7368
2018-03-04T09:17:35.131Z,7336
2018-03-04T09:18:35.625Z,7332
2018-03-04T09:19:35.132Z,7328
2018-03-04T09:20:35.403Z,7348
2018-03-04T09:21:35.119Z,7328
2018-03-04T09:22:35.372Z,7316
2018-03-04T09:23:35.098Z,7244
2018-03-04T09:24:35.103Z,7224
2018-03-04T09:25:35.145Z,7224
2018-03-04T09:26:35.345Z,7196
2018-03-04T09:27:35.604Z,7172
2018-03-04T09:28:39.643Z,7144
2018-03-04T09:29:35.607Z,7188
2018-03-04T09:30:35.091Z,7164
2018-03-04T09:31:35.076Z,7180
2018-03-04T09:32:35.557Z,7144
2018-03-04T09:33:35.579Z,7072
2018-03-04T09:34:35.060Z,7120
2018-03-04T09:35:35.293Z,7064
2018-03-04T09:36:35.296Z,7052
2018-03-04T09:37:34.778Z,7044
2018-03-04T09:38:35.642Z,7068
2018-03-04T09:39:35.557Z,7040
2018-03-04T09:40:35.286Z,7024
2018-03-04T09:41:35.542Z,7028
2018-03-04T09:42:35.538Z,7044
2018-03-04T09:43:35.267Z,7056
2018-03-04T09:44:35.017Z,7056
2018-03-04T09:45:35.632Z,7052
2018-03-04T09:46:35.270Z,7052
2018-03-04T09:47:35.316Z,7096
2018-03-04T09:48:35.499Z,7160
2018-03-04T09:49:35.232Z,7244
2018-03-04T09:50:34.993Z,6888
2018-03-04T09:51:35.474Z,7172
2018-03-04T09:52:35.503Z,6376
2018-03-04T09:53:35.219Z,7640
2018-03-04T09:54:35.234Z,7672
2018-03-04T09:55:35.470Z,7668
2018-03-04T09:56:35.199Z,7412
2018-03-04T09:57:35.449Z,7624
2018-03-04T09:58:34.954Z,7436
2018-03-04T09:59:38.941Z,7448
2018-03-04T10:00:35.454Z,6364
2018-03-04T10:01:34.940Z,7160
2018-03-04T10:02:34.927Z,7156
2018-03-04T10:03:35.449Z,7676
2018-03-04T10:04:34.925Z,7648
2018-03-04T10:05:35.423Z,7572
2018-03-04T10:06:35.165Z,7484
2018-03-04T10:07:35.422Z,7412
2018-03-04T10:08:34.907Z,7324
2018-03-04T10:09:35.164Z,7252
2018-03-04T10:10:34.895Z,7172
2018-03-04T10:11:35.316Z,7092
2018-03-04T10:12:35.392Z,7028
2018-03-04T10:13:34.967Z,6976
2018-03-04T10:14:37.249Z,6916
2018-03-04T10:15:35.380Z,6848
2018-03-04T10:16:35.174Z,6808
2018-03-04T10:17:35.125Z,6772
2018-03-04T10:18:35.121Z,6740
2018-03-04T10:19:34.865Z,6716
2018-03-04T10:20:35.478Z,6700
2018-03-04T10:21:35.355Z,6708
2018-03-04T10:22:35.124Z,6700
2018-03-04T10:23:35.408Z,6732
2018-03-04T10:24:34.850Z,6756
2018-03-04T10:25:35.359Z,6780
2018-03-04T10:26:35.351Z,6816
2018-03-04T10:27:35.354Z,6868
2018-03-04T10:28:35.085Z,5840
2018-03-04T10:58:18.643Z,6200
2018-03-04T10:59:18.619Z,6120
2018-03-04T11:00:19.241Z,6052
2018-03-04T11:01:18.854Z,5984
2018-03-04T11:02:18.598Z,5936
2018-03-04T11:03:18.331Z,5896
2018-03-04T11:04:18.558Z,5860
2018-03-04T11:05:19.316Z,5840
2018-03-04T11:06:18.294Z,5816
2018-03-04T11:07:18.552Z,5792
2018-03-04T11:08:18.558Z,5780
2018-03-04T11:09:18.536Z,5760
2018-03-04T11:10:19.648Z,5752
2018-03-04T11:11:18.784Z,5752
2018-03-04T11:12:18.027Z,5756
2018-03-04T11:13:20.880Z,5772
2018-03-04T11:14:18.507Z,5796
2018-03-04T11:15:20.155Z,5804
2018-03-04T11:16:18.769Z,5836
2018-03-04T11:17:18.843Z,5964
2018-03-04T11:18:18.754Z,6016
2018-03-04T11:19:18.757Z,6180
2018-03-04T11:20:19.372Z,6248
2018-03-04T11:21:18.502Z,6304
2018-03-04T11:22:18.506Z,6340
2018-03-04T11:23:18.241Z,6408
2018-03-04T11:24:18.753Z,6476
2018-03-04T11:25:20.136Z,6564
2018-03-04T11:26:18.734Z,6656
2018-03-04T11:27:18.484Z,6728
2018-03-04T11:28:18.473Z,6792
2018-03-04T11:29:17.963Z,6832
2018-03-04T11:30:19.852Z,6840
2018-03-04T11:31:18.728Z,6828
2018-03-04T11:32:18.222Z,6804
2018-03-04T11:33:18.719Z,6772
2018-03-04T11:34:18.213Z,6764
2018-03-04T11:35:20.276Z,6796
2018-03-04T11:36:18.207Z,6856
2018-03-04T11:37:18.721Z,6920
2018-03-04T11:38:18.463Z,6940
2018-03-04T11:39:18.203Z,6916
2018-03-04T11:40:19.478Z,6856
2018-03-04T11:41:18.719Z,6808
2018-03-04T11:42:17.946Z,6744
2018-03-04T11:43:18.742Z,6668
2018-03-04T11:44:18.459Z,6592
2018-03-04T11:45:19.299Z,6508
2018-03-04T11:46:18.719Z,6432
2018-03-04T11:47:18.440Z,6352
2018-03-04T11:48:18.456Z,6252
2018-03-04T11:49:18.702Z,6160
2018-03-04T11:50:19.790Z,6080
2018-03-04T11:51:18.196Z,6000
2018-03-04T11:52:18.450Z,5920
2018-03-04T11:53:18.695Z,5848
2018-03-04T11:54:18.724Z,5776
2018-03-04T11:55:19.690Z,5728
2018-03-04T11:56:18.441Z,5688
2018-03-04T11:57:18.698Z,5648
2018-03-04T11:58:18.702Z,5632
2018-03-04T11:59:18.430Z,5628
2018-03-04T12:00:19.397Z,5612
2018-03-04T12:01:18.448Z,5624
2018-03-04T12:02:18.174Z,5608
2018-03-04T12:03:18.687Z,5596
2018-03-04T12:04:18.430Z,5600
2018-03-04T12:05:19.624Z,5608
2018-03-04T12:06:18.684Z,5624
2018-03-04T12:07:18.422Z,5620
2018-03-04T12:08:18.689Z,5580
2018-03-04T12:09:18.175Z,5612
2018-03-04T12:10:19.481Z,5608
2018-03-04T12:11:18.684Z,5588
2018-03-04T12:12:18.677Z,5540
2018-03-04T12:13:20.576Z,5404
2018-03-04T12:14:18.671Z,5436
2018-03-04T12:15:19.872Z,5376
2018-03-04T12:16:18.679Z,5352
2018-03-04T12:17:18.672Z,5304
2018-03-04T12:18:18.664Z,5260
2018-03-04T12:19:18.418Z,5140
2018-03-04T12:20:19.573Z,5048
2018-03-04T12:21:18.185Z,4968
2018-03-04T12:22:18.406Z,4920
2018-03-04T12:23:18.418Z,4784
2018-03-04T12:24:18.659Z,4640
2018-03-04T12:25:19.175Z,4648
2018-03-04T12:26:18.410Z,4508
2018-03-04T12:27:18.437Z,4380
2018-03-04T12:28:18.658Z,4248
2018-03-04T12:29:18.442Z,4348
2018-03-04T12:30:19.297Z,4268
2018-03-04T12:31:18.410Z,4180
2018-03-04T12:32:18.395Z,4344
2018-03-04T12:33:18.711Z,4592
2018-03-04T12:34:18.399Z,4896
2018-03-04T12:35:19.189Z,5112
2018-03-04T12:36:18.397Z,5396
2018-03-04T12:37:18.394Z,5632
2018-03-04T12:38:18.140Z,5832
2018-03-04T12:39:18.452Z,5964
2018-03-04T12:40:18.872Z,6080
2018-03-04T12:41:18.139Z,6136
2018-03-04T12:42:18.444Z,6152
2018-03-04T12:43:18.643Z,6112
2018-03-04T12:44:20.038Z,5820
2018-03-04T12:45:19.648Z,5632
2018-03-04T12:46:18.129Z,5456
2018-03-04T12:47:18.387Z,5344
2018-03-04T12:48:18.632Z,5340
2018-03-04T12:49:18.388Z,5580
2018-03-04T12:50:19.712Z,5748
2018-03-04T12:51:18.639Z,6108
2018-03-04T12:52:18.389Z,6348
2018-03-04T12:53:18.402Z,6520
2018-03-04T12:54:18.636Z,6744
2018-03-04T12:55:19.441Z,6976
2018-03-04T12:56:18.928Z,7200
2018-03-04T12:57:18.473Z,7432
2018-03-04T12:58:19.173Z,7732
2018-03-04T12:59:18.462Z,7960
2018-03-04T13:00:18.957Z,8076
2018-03-04T13:01:19.278Z,8116
2018-03-04T13:02:18.376Z,7920
2018-03-04T13:03:18.369Z,8108
2018-03-04T13:04:18.115Z,7788
2018-03-04T13:05:19.635Z,7500
2018-03-04T13:06:18.626Z,7192
2018-03-04T13:07:18.399Z,6856
2018-03-04T13:08:18.383Z,6296
2018-03-04T13:09:18.365Z,6404
2018-03-04T13:10:18.619Z,6160
2018-03-04T13:11:18.165Z,6324
2018-03-04T13:12:18.628Z,5828
2018-03-04T13:13:18.377Z,5652
2018-03-04T13:14:23.125Z,5368
2018-03-04T13:15:19.183Z,5600
2018-03-04T13:16:18.121Z,6196
2018-03-04T13:17:18.372Z,6920
2018-03-04T13:18:18.485Z,7792
2018-03-04T13:19:18.368Z,8608
2018-03-04T13:20:19.758Z,9008
2018-03-04T13:21:18.636Z,8956
2018-03-04T13:22:18.373Z,8832
2018-03-04T13:23:18.624Z,8716
2018-03-04T13:24:18.413Z,8656
2018-03-04T13:25:18.715Z,8536
2018-03-04T13:26:18.400Z,8432
2018-03-04T13:27:18.111Z,8312
2018-03-04T13:28:18.113Z,8156
2018-03-04T13:29:18.363Z,8064
2018-03-04T13:30:20.210Z,7996
2018-03-04T13:31:18.380Z,7976
2018-03-04T13:32:18.656Z,7904
2018-03-04T13:33:18.625Z,7896
2018-03-04T13:34:18.673Z,7816
2018-03-04T13:35:19.141Z,7760
2018-03-04T13:36:18.413Z,7660
2018-03-04T13:37:18.448Z,7556
2018-03-04T13:38:18.356Z,7448
2018-03-04T13:39:18.625Z,7432
2018-03-04T13:40:20.159Z,7252
2018-03-04T13:41:18.614Z,7024
2018-03-04T13:42:18.351Z,6628
2018-03-04T13:43:18.606Z,6140
2018-03-04T13:44:18.362Z,5744
2018-03-04T13:45:21.241Z,5504
2018-03-04T13:46:18.605Z,5352
2018-03-04T13:47:18.743Z,5236
2018-03-04T13:48:18.353Z,5312
2018-03-04T13:49:18.608Z,5520
2018-03-04T13:50:19.217Z,5692
2018-03-04T13:51:18.608Z,5952
2018-03-04T13:52:18.616Z,6076
2018-03-04T13:53:18.361Z,6204
2018-03-04T13:54:18.358Z,6308
2018-03-04T13:55:19.293Z,6352
2018-03-04T13:56:18.094Z,6616
2018-03-04T13:57:17.838Z,6832
2018-03-04T13:58:18.105Z,6964
2018-03-04T13:59:18.604Z,7044
2018-03-04T14:00:19.707Z,7012
2018-03-04T14:01:18.379Z,6900
2018-03-04T14:02:18.594Z,6752
2018-03-04T14:03:18.111Z,6600
2018-03-04T14:04:17.835Z,6428
2018-03-04T14:05:19.499Z,6228
2018-03-04T14:06:18.628Z,6024
2018-03-04T14:07:18.085Z,5832
2018-03-04T14:08:18.332Z,5628
2018-03-04T14:09:18.134Z,5452
2018-03-04T14:10:19.240Z,5288
2018-03-04T14:11:18.607Z,5136
2018-03-04T14:12:18.355Z,4968
2018-03-04T14:13:18.338Z,4728
2018-03-04T14:14:18.342Z,4592
2018-03-04T14:15:19.014Z,4696
2018-03-04T14:16:18.657Z,4680
2018-03-04T14:17:18.342Z,4520
2018-03-04T14:18:18.078Z,4476
2018-03-04T14:19:18.084Z,4024
2018-03-04T14:20:19.060Z,4140
2018-03-04T14:21:18.350Z,4116
2018-03-04T14:22:18.405Z,4428
2018-03-04T14:23:18.410Z,4504